OBBIOMAA

Guest
Details From OBBI - BAHRAIN INTL
To OMAA - ABU DHABI INTL
Flight Number -
Tags generated
Created
Modified
Stats Distance 244 nm / 452 km
Max Altitude 27,100 ft / 8,260 m
Waypoints 8
Social Downloads 4
Likes 0
Share VATSIM

Download

Looking for another format? Having issues loading an existing format? Contact us
Advertisement - Login to hide

Notes

Basic altitude profile: - Ascent Rate: 2500ft/min - Ascent Speed: 250kts - Cruise Altitude: 35000ft - Cruise Speed: 420kts - Descent Rate: 1500ft/min - Descent Speed: 250kts Options: - Use NATs: yes - Use PACOTS: yes - Use low airways: yes - Use high airways: yes

Route

OBBI RADLO B457 RAMRO OMAA

ID Type Via Altitude Latitude Longitude Leg Dist Tot Dist Heading (true) Name
O OBBI APT - 0 ft / 0 m 26.26784˚ 50.63710˚ - 0 nm - BAHRAIN INTL
RADLO FIX - 9,700 ft / 2,957 m 26.07389˚ 51.09611˚ 27 nm 27 nm 115° / 115° -
PASID FIX B457 (AWY-LO) 13,600 ft / 4,145 m 25.97694˚ 51.32583˚ 13 nm 41 nm 115° / 115° -
ELOSA FIX B457 (AWY-LO) 21,800 ft / 6,645 m 25.81389˚ 51.70917˚ 22 nm 63 nm 115° / 115° -
SISOK FIX B457 (AWY-HI) 27,100 ft / 8,260 m 25.42833˚ 52.60250˚ 53 nm 117 nm 115° / 116° -
LOXAT FIX B457 (AWY-HI) 25,100 ft / 7,650 m 25.36111˚ 52.75639˚ 9 nm 126 nm 116° / 116° -
RAMRO FIX B457 (AWY-HI) 21,600 ft / 6,584 m 25.27722˚ 52.94778˚ 11 nm 138 nm 116° / 116° -
O OMAA APT - 0 ft / 0 m 24.43305˚ 54.65118˚ 105 nm 244 nm 118° / 119° ABU DHABI INTL

Altitude Profile

Advertisement - Login to hide

Weather


0- 5 10 15 20 25 30 35+ Temperature / ° C

Clouds and Precipitation
Forecast for 2018-05-27 06:00 UTC. Updated 3 hours ago

Ground ~20,000 ft ~40,000 ft Winds

OBBI

Details ICAO OBBI (BAH)
Name BAHRAIN INTL
Region Bahrain
Timezone Asia/Bahrain (UTC+3.0)
Stats Elevation 6 ft / 2 m (AMSL)
Location 26.267837° 50.637095°
Runways 2
Magnetic Variation 2.783° E

METAR

OBBI 270830Z 05006KT 330V110 CAVOK 36/17 Q1007 NOSIG

Decode

TAF

TAF OBBI 270500Z 2706/2812 36008KT CAVOK= TAF OMAA 270500Z 2706/2812 18012KT 8000 NSC BECMG 2709/2711 34013KT PROB30 TEMPO 2711/2714 VRB18G30KT 3000 BLDU FEW045TCU BECMG 2718/2720 07005KT BECMG 2801/2803 18010KT BECMG 2809/2811 30011KT

Decode

Departure Runways

ID Width Length Bearing (true) Bearing (mag) Surface Threshold Offset Overrun Length
12L 197 ft / 60 m 12,893 ft / 3,930 m 122.74° 119.96° Asphalt 1,000 ft / 305 m 0 ft / 0 m
12R 148 ft / 45 m 8,303 ft / 2,531 m 122.76° 119.98° Asphalt 1,000 ft / 305 m 0 ft / 0 m
30L 148 ft / 45 m 8,303 ft / 2,531 m 302.77° 299.99° Asphalt 395 ft / 120 m 0 ft / 0 m
30R 197 ft / 60 m 12,893 ft / 3,930 m 302.75° 299.97° Asphalt 1,000 ft / 305 m 0 ft / 0 m

OMAA

Details ICAO OMAA (AUH)
Name ABU DHABI INTL
Region United Arab Emirates
Timezone Asia/Dubai (UTC+4.0)
Stats Elevation 88 ft / 27 m (AMSL)
Location 24.433049° 54.651182°
Runways 1
Magnetic Variation 2.000° E

METAR

OMAA 270800Z 19010KT 160V220 8000 NSC 38/18 Q1006 NOSIG

Decode

TAF

TAF OMAA 270500Z 2706/2812 18012KT 8000 NSC BECMG 2709/2711 34013KT PROB30 TEMPO 2711/2714 VRB18G30KT 3000 BLDU FEW045TCU BECMG 2718/2720 07005KT BECMG 2801/2803 18010KT BECMG 2809/2811 30011KT

Decode

Destination Runways

ID Width Length Bearing (true) Bearing (mag) Surface Threshold Offset Overrun Length
13 148 ft / 45 m 13,461 ft / 4,103 m 127.94° 125.94° Asphalt 0 ft / 0 m 180 ft / 55 m
31 148 ft / 45 m 13,461 ft / 4,103 m 307.95° 305.95° Asphalt 0 ft / 0 m 196 ft / 60 m

Approach Navaids

Runway Type Ident Frequency Range Bearing (true) Bearing (mag) Slope Elevation
13 Localiser IAE 108.90 MHz 18 nm / 33 km 127.95° 125.95° - 110 ft / 34 m (AMSL)
13 Glidescope IAE 108.90 MHz 10 nm / 19 km 127.94° 125.94° 3.00° 120 ft / 37 m (AMSL)
13 DME IAE 108.90 MHz 18 nm / 33 km - - - 98 ft / 30 m (AMSL)
31 Localiser IAW 109.30 MHz 18 nm / 33 km 307.93° 305.93° - 88 ft / 27 m (AMSL)
31 Glidescope IAW 109.30 MHz 10 nm / 19 km 307.94° 305.94° 3.00° 122 ft / 37 m (AMSL)
31 DME IAW 109.30 MHz 18 nm / 33 km - - - 96 ft / 29 m (AMSL)

Popular Alternatives